sensor_id;sensor_type;location;lat;lon;timestamp;pressure;altitude;pressure_sealevel;temperature;humidity
12949;BME280;6539;49.476;8.484;2023-03-21T00:01:00;100818.69;;;13.39;49.81
12949;BME280;6539;49.476;8.484;2023-03-21T00:03:33;100813.16;;;13.39;49.67
12949;BME280;6539;49.476;8.484;2023-03-21T00:06:10;100818.66;;;13.43;49.99
12949;BME280;6539;49.476;8.484;2023-03-21T00:08:39;100808.81;;;13.42;49.97
12949;BME280;6539;49.476;8.484;2023-03-21T00:11:08;100797.38;;;13.43;49.88
12949;BME280;6539;49.476;8.484;2023-03-21T00:13:40;100800.13;;;13.43;50.23
12949;BME280;6539;49.476;8.484;2023-03-21T00:16:15;100806.47;;;13.40;50.01
12949;BME280;6539;49.476;8.484;2023-03-21T00:18:49;100807.63;;;13.43;50.23
12949;BME280;6539;49.476;8.484;2023-03-21T00:21:22;100789.13;;;13.40;50.35
12949;BME280;6539;49.476;8.484;2023-03-21T00:23:55;100792.72;;;13.37;50.52
12949;BME280;6539;49.476;8.484;2023-03-21T00:26:20;100786.06;;;13.34;50.41
12949;BME280;6539;49.476;8.484;2023-03-21T00:28:50;100786.16;;;13.27;50.81
12949;BME280;6539;49.476;8.484;2023-03-21T00:31:17;100789.63;;;13.31;50.97
12949;BME280;6539;49.476;8.484;2023-03-21T00:33:43;100782.25;;;13.25;50.84
12949;BME280;6539;49.476;8.484;2023-03-21T00:36:12;100780.28;;;13.25;51.18
12949;BME280;6539;49.476;8.484;2023-03-21T00:38:38;100784.56;;;13.26;51.10
12949;BME280;6539;49.476;8.484;2023-03-21T00:41:09;100775.22;;;13.20;51.06
12949;BME280;6539;49.476;8.484;2023-03-21T00:43:38;100777.59;;;13.18;51.56
12949;BME280;6539;49.476;8.484;2023-03-21T00:46:06;100779.31;;;13.09;51.74
12949;BME280;6539;49.476;8.484;2023-03-21T00:48:32;100773.75;;;13.12;51.52
12949;BME280;6539;49.476;8.484;2023-03-21T00:50:58;100768.97;;;13.16;51.38
12949;BME280;6539;49.476;8.484;2023-03-21T00:53:28;100771.72;;;13.16;51.57
12949;BME280;6539;49.476;8.484;2023-03-21T00:55:56;100765.38;;;13.19;51.74
12949;BME280;6539;49.476;8.484;2023-03-21T00:58:24;100768.94;;;13.20;51.60
12949;BME280;6539;49.476;8.484;2023-03-21T01:00:50;100767.41;;;13.15;51.74
12949;BME280;6539;49.476;8.484;2023-03-21T01:03:18;100763.53;;;13.09;51.69
12949;BME280;6539;49.476;8.484;2023-03-21T01:05:49;100752.13;;;13.07;51.94
12949;BME280;6539;49.476;8.484;2023-03-21T01:08:31;100756.09;;;13.06;51.90
12949;BME280;6539;49.476;8.484;2023-03-21T01:11:23;100754.13;;;13.07;52.26
12949;BME280;6539;49.476;8.484;2023-03-21T01:13:51;100758.88;;;13.06;52.31
12949;BME280;6539;49.476;8.484;2023-03-21T01:16:17;100759.34;;;12.94;52.55
12949;BME280;6539;49.476;8.484;2023-03-21T01:18:45;100753.91;;;12.90;52.83
12949;BME280;6539;49.476;8.484;2023-03-21T01:21:13;100744.53;;;12.84;52.96
12949;BME280;6539;49.476;8.484;2023-03-21T01:23:41;100743.31;;;12.85;52.94
12949;BME280;6539;49.476;8.484;2023-03-21T01:26:15;100746.44;;;12.87;53.19
12949;BME280;6539;49.476;8.484;2023-03-21T01:28:44;100750.72;;;12.92;53.04
12949;BME280;6539;49.476;8.484;2023-03-21T01:31:14;100742.81;;;12.94;53.01
12949;BME280;6539;49.476;8.484;2023-03-21T01:33:41;100736.19;;;12.91;53.21
12949;BME280;6539;49.476;8.484;2023-03-21T01:36:17;100738.53;;;12.93;53.13
12949;BME280;6539;49.476;8.484;2023-03-21T01:38:44;100722.34;;;12.95;53.20
12949;BME280;6539;49.476;8.484;2023-03-21T01:41:37;100735.44;;;12.87;53.22
12949;BME280;6539;49.476;8.484;2023-03-21T01:44:03;100728.78;;;12.85;53.13
12949;BME280;6539;49.476;8.484;2023-03-21T01:46:48;100730.34;;;12.86;53.42
12949;BME280;6539;49.476;8.484;2023-03-21T01:49:26;100725.97;;;12.88;53.36
12949;BME280;6539;49.476;8.484;2023-03-21T01:52:02;100724.41;;;12.87;53.21
12949;BME280;6539;49.476;8.484;2023-03-21T01:54:36;100728.78;;;12.85;53.59
12949;BME280;6539;49.476;8.484;2023-03-21T01:57:16;100732.00;;;12.80;53.82
12949;BME280;6539;49.476;8.484;2023-03-21T01:59:50;100727.22;;;12.84;53.47
12949;BME280;6539;49.476;8.484;2023-03-21T02:02:28;100728.31;;;12.90;53.59
12949;BME280;6539;49.476;8.484;2023-03-21T02:05:01;100725.38;;;12.74;53.81
12949;BME280;6539;49.476;8.484;2023-03-21T02:07:36;100723.78;;;12.76;54.19
12949;BME280;6539;49.476;8.484;2023-03-21T02:10:06;100713.13;;;12.78;54.26
12949;BME280;6539;49.476;8.484;2023-03-21T02:12:34;100710.50;;;12.68;54.76
12949;BME280;6539;49.476;8.484;2023-03-21T02:15:00;100712.00;;;12.72;54.28
12949;BME280;6539;49.476;8.484;2023-03-21T02:23:44;100695.00;;;12.81;54.72
12949;BME280;6539;49.476;8.484;2023-03-21T02:35:49;100688.97;;;12.89;54.31
12949;BME280;6539;49.476;8.484;2023-03-21T02:41:30;100688.19;;;12.89;54.31
12949;BME280;6539;49.476;8.484;2023-03-21T02:47:28;100674.94;;;12.77;54.15
12949;BME280;6539;49.476;8.484;2023-03-21T02:50:08;100688.00;;;12.73;54.32
12949;BME280;6539;49.476;8.484;2023-03-21T02:52:38;100688.00;;;12.73;54.56
12949;BME280;6539;49.476;8.484;2023-03-21T02:55:22;100696.63;;;12.75;54.81
12949;BME280;6539;49.476;8.484;2023-03-21T02:57:51;100692.31;;;12.74;55.00
12949;BME280;6539;49.476;8.484;2023-03-21T03:00:30;100689.94;;;12.76;54.89
12949;BME280;6539;49.476;8.484;2023-03-21T03:02:58;100681.31;;;12.70;55.05
12949;BME280;6539;49.476;8.484;2023-03-21T03:05:30;100682.84;;;12.75;54.99
12949;BME280;6539;49.476;8.484;2023-03-21T03:11:04;100671.09;;;12.71;55.49
12949;BME280;6539;49.476;8.484;2023-03-21T03:17:08;100671.16;;;12.64;55.40
12949;BME280;6539;49.476;8.484;2023-03-21T03:26:16;100684.19;;;12.63;55.84
12949;BME280;6539;49.476;8.484;2023-03-21T03:28:51;100681.31;;;12.70;55.21
12949;BME280;6539;49.476;8.484;2023-03-21T03:31:28;100678.19;;;12.68;54.98
12949;BME280;6539;49.476;8.484;2023-03-21T03:34:01;100679.44;;;12.64;55.38
12949;BME280;6539;49.476;8.484;2023-03-21T03:36:38;100675.19;;;12.59;55.65
12949;BME280;6539;49.476;8.484;2023-03-21T03:39:09;100679.06;;;12.62;55.46
12949;BME280;6539;49.476;8.484;2023-03-21T03:42:07;100681.19;;;12.51;56.00
12949;BME280;6539;49.476;8.484;2023-03-21T03:44:35;100683.16;;;12.50;56.08
12949;BME280;6539;49.476;8.484;2023-03-21T03:50:10;100675.28;;;12.52;55.95
12949;BME280;6539;49.476;8.484;2023-03-21T03:52:48;100676.00;;;12.56;55.74
12949;BME280;6539;49.476;8.484;2023-03-21T03:55:18;100670.06;;;12.58;55.47
12949;BME280;6539;49.476;8.484;2023-03-21T03:57:47;100674.41;;;12.59;55.51
12949;BME280;6539;49.476;8.484;2023-03-21T04:00:18;100666.94;;;12.56;55.77
12949;BME280;6539;49.476;8.484;2023-03-21T04:02:45;100667.38;;;12.54;55.61
12949;BME280;6539;49.476;8.484;2023-03-21T04:05:15;100670.19;;;12.51;55.82
12949;BME280;6539;49.476;8.484;2023-03-21T04:07:46;100672.94;;;12.47;55.99
12949;BME280;6539;49.476;8.484;2023-03-21T04:10:18;100666.22;;;12.52;55.80
12949;BME280;6539;49.476;8.484;2023-03-21T04:12:44;100674.84;;;12.54;55.91
12949;BME280;6539;49.476;8.484;2023-03-21T04:15:11;100672.50;;;12.52;55.46
12949;BME280;6539;49.476;8.484;2023-03-21T04:17:38;100667.44;;;12.51;56.03
12949;BME280;6539;49.476;8.484;2023-03-21T04:20:05;100659.16;;;12.51;55.89
12949;BME280;6539;49.476;8.484;2023-03-21T04:22:33;100666.66;;;12.47;55.85
12949;BME280;6539;49.476;8.484;2023-03-21T04:25:01;100665.97;;;12.39;55.74
12949;BME280;6539;49.476;8.484;2023-03-21T04:27:28;100666.75;;;12.40;56.08
12949;BME280;6539;49.476;8.484;2023-03-21T04:29:54;100659.69;;;12.39;55.69
12949;BME280;6539;49.476;8.484;2023-03-21T04:32:20;100673.06;;;12.37;56.35
12949;BME280;6539;49.476;8.484;2023-03-21T04:34:49;100671.53;;;12.36;56.70
12949;BME280;6539;49.476;8.484;2023-03-21T04:37:21;100664.81;;;12.37;56.17
12949;BME280;6539;49.476;8.484;2023-03-21T04:39:51;100663.63;;;12.38;56.11
12949;BME280;6539;49.476;8.484;2023-03-21T04:42:19;100669.53;;;12.40;56.24
12949;BME280;6539;49.476;8.484;2023-03-21T04:44:47;100668.38;;;12.34;56.05
12949;BME280;6539;49.476;8.484;2023-03-21T04:47:14;100668.72;;;12.39;56.26
12949;BME280;6539;49.476;8.484;2023-03-21T04:49:47;100664.44;;;12.35;56.29
12949;BME280;6539;49.476;8.484;2023-03-21T04:52:14;100666.41;;;12.34;56.71
12949;BME280;6539;49.476;8.484;2023-03-21T04:54:40;100670.38;;;12.33;56.32
12949;BME280;6539;49.476;8.484;2023-03-21T04:57:06;100662.94;;;12.30;56.25
12949;BME280;6539;49.476;8.484;2023-03-21T04:59:34;100659.47;;;12.22;56.90
12949;BME280;6539;49.476;8.484;2023-03-21T05:02:02;100666.22;;;12.18;57.08
12949;BME280;6539;49.476;8.484;2023-03-21T05:04:33;100661.50;;;12.15;57.50
12949;BME280;6539;49.476;8.484;2023-03-21T05:07:03;100657.84;;;12.29;57.21
12949;BME280;6539;49.476;8.484;2023-03-21T05:09:33;100655.97;;;12.18;57.55
12949;BME280;6539;49.476;8.484;2023-03-21T05:11:59;100660.72;;;12.18;57.86
12949;BME280;6539;49.476;8.484;2023-03-21T05:14:26;100653.69;;;12.13;57.76
12949;BME280;6539;49.476;8.484;2023-03-21T05:16:52;100644.69;;;12.09;57.89
12949;BME280;6539;49.476;8.484;2023-03-21T05:19:24;100655.31;;;12.07;57.89
12949;BME280;6539;49.476;8.484;2023-03-21T05:21:50;100643.47;;;12.14;57.59
12949;BME280;6539;49.476;8.484;2023-03-21T05:24:19;100649.66;;;12.21;57.60
12949;BME280;6539;49.476;8.484;2023-03-21T05:26:47;100639.81;;;12.24;57.25
12949;BME280;6539;49.476;8.484;2023-03-21T05:29:18;100647.69;;;12.18;57.66
12949;BME280;6539;49.476;8.484;2023-03-21T05:31:48;100640.41;;;12.01;58.02
12949;BME280;6539;49.476;8.484;2023-03-21T05:34:14;100638.94;;;11.93;58.23
12949;BME280;6539;49.476;8.484;2023-03-21T05:36:42;100643.25;;;11.94;58.45
12949;BME280;6539;49.476;8.484;2023-03-21T05:39:08;100649.50;;;11.98;58.17
12949;BME280;6539;49.476;8.484;2023-03-21T05:41:34;100643.97;;;12.02;58.33
12949;BME280;6539;49.476;8.484;2023-03-21T05:43:59;100643.16;;;12.05;58.38
12949;BME280;6539;49.476;8.484;2023-03-21T05:46:25;100645.91;;;12.05;58.17
12949;BME280;6539;49.476;8.484;2023-03-21T05:48:51;100647.56;;;11.95;58.38
12949;BME280;6539;49.476;8.484;2023-03-21T05:51:19;100647.19;;;11.93;58.75
12949;BME280;6539;49.476;8.484;2023-03-21T05:53:46;100645.19;;;11.97;58.81
12949;BME280;6539;49.476;8.484;2023-03-21T05:56:11;100636.13;;;12.00;58.60
12949;BME280;6539;49.476;8.484;2023-03-21T05:58:39;100647.81;;;12.11;58.35
12949;BME280;6539;49.476;8.484;2023-03-21T06:01:06;100648.50;;;12.19;58.29
12949;BME280;6539;49.476;8.484;2023-03-21T06:03:31;100650.44;;;12.22;58.47
12949;BME280;6539;49.476;8.484;2023-03-21T06:05:57;100657.09;;;12.24;58.36
12949;BME280;6539;49.476;8.484;2023-03-21T06:08:30;100655.00;;;12.36;58.23
12949;BME280;6539;49.476;8.484;2023-03-21T06:10:58;100654.91;;;12.43;58.11
12949;BME280;6539;49.476;8.484;2023-03-21T06:13:27;100655.63;;;12.50;57.95
12949;BME280;6539;49.476;8.484;2023-03-21T06:15:58;100652.88;;;12.50;57.44
12949;BME280;6539;49.476;8.484;2023-03-21T06:18:23;100657.16;;;12.51;57.63
12949;BME280;6539;49.476;8.484;2023-03-21T06:20:51;100649.63;;;12.55;56.93
12949;BME280;6539;49.476;8.484;2023-03-21T06:23:19;100657.91;;;12.55;57.19
12949;BME280;6539;49.476;8.484;2023-03-21T06:25:47;100654.56;;;12.71;56.89
12949;BME280;6539;49.476;8.484;2023-03-21T06:28:13;100658.84;;;12.75;56.52
12949;BME280;6539;49.476;8.484;2023-03-21T06:30:39;100654.25;;;12.95;59.64
12949;BME280;6539;49.476;8.484;2023-03-21T06:33:05;100652.25;;;12.96;56.46
12949;BME280;6539;49.476;8.484;2023-03-21T06:35:30;100651.38;;;13.02;55.81
12949;BME280;6539;49.476;8.484;2023-03-21T06:37:56;100658.34;;;13.14;56.84
12949;BME280;6539;49.476;8.484;2023-03-21T06:40:23;100658.69;;;13.16;55.43
12949;BME280;6539;49.476;8.484;2023-03-21T06:42:51;100657.97;;;13.12;55.69
12949;BME280;6539;49.476;8.484;2023-03-21T06:45:19;100667.47;;;13.08;55.14
12949;BME280;6539;49.476;8.484;2023-03-21T06:47:47;100667.13;;;13.06;55.19
12949;BME280;6539;49.476;8.484;2023-03-21T06:50:16;100670.66;;;13.06;55.35
12949;BME280;6539;49.476;8.484;2023-03-21T06:52:44;100666.59;;;12.84;55.99
12949;BME280;6539;49.476;8.484;2023-03-21T06:55:10;100669.25;;;12.91;56.22
12949;BME280;6539;49.476;8.484;2023-03-21T06:57:36;100658.19;;;12.94;56.22
12949;BME280;6539;49.476;8.484;2023-03-21T07:00:05;100663.28;;;12.96;56.10
12949;BME280;6539;49.476;8.484;2023-03-21T07:02:35;100666.78;;;13.00;55.64
12949;BME280;6539;49.476;8.484;2023-03-21T07:05:01;100661.41;;;13.20;55.69
12949;BME280;6539;49.476;8.484;2023-03-21T07:07:27;100657.09;;;13.68;54.28
12949;BME280;6539;49.476;8.484;2023-03-21T07:09:54;100655.81;;;13.96;53.20
12949;BME280;6539;49.476;8.484;2023-03-21T07:12:22;100661.13;;;14.07;52.86
12949;BME280;6539;49.476;8.484;2023-03-21T07:14:50;100668.41;;;14.79;50.82
12949;BME280;6539;49.476;8.484;2023-03-21T07:17:16;100670.19;;;15.41;48.70
12949;BME280;6539;49.476;8.484;2023-03-21T07:19:41;100660.28;;;15.44;47.99
12949;BME280;6539;49.476;8.484;2023-03-21T07:22:07;100668.16;;;15.25;48.53
12949;BME280;6539;49.476;8.484;2023-03-21T07:24:35;100664.25;;;15.07;48.98
12949;BME280;6539;49.476;8.484;2023-03-21T07:27:03;100663.56;;;15.03;48.80
12949;BME280;6539;49.476;8.484;2023-03-21T07:29:32;100665.13;;;14.84;49.13
12949;BME280;6539;49.476;8.484;2023-03-21T07:32:00;100664.84;;;14.98;48.76
12949;BME280;6539;49.476;8.484;2023-03-21T07:34:26;100665.22;;;15.16;48.59
12949;BME280;6539;49.476;8.484;2023-03-21T07:37:04;100666.09;;;15.13;48.75
12949;BME280;6539;49.476;8.484;2023-03-21T07:39:32;100653.31;;;15.36;48.36
12949;BME280;6539;49.476;8.484;2023-03-21T07:41:59;100652.66;;;15.80;47.12
12949;BME280;6539;49.476;8.484;2023-03-21T07:44:26;100656.44;;;16.02;46.16
12949;BME280;6539;49.476;8.484;2023-03-21T07:46:57;100658.41;;;16.01;46.16
12949;BME280;6539;49.476;8.484;2023-03-21T07:49:23;100659.53;;;16.33;45.61
12949;BME280;6539;49.476;8.484;2023-03-21T07:51:51;100654.97;;;16.26;45.17
12949;BME280;6539;49.476;8.484;2023-03-21T07:54:17;100659.94;;;15.74;46.41
12949;BME280;6539;49.476;8.484;2023-03-21T07:56:46;100662.16;;;15.47;46.92
12949;BME280;6539;49.476;8.484;2023-03-21T07:59:12;100669.59;;;15.66;47.41
12949;BME280;6539;49.476;8.484;2023-03-21T08:01:40;100663.09;;;16.33;46.31
12949;BME280;6539;49.476;8.484;2023-03-21T08:04:05;100655.31;;;17.36;44.38
12949;BME280;6539;49.476;8.484;2023-03-21T08:06:32;100664.66;;;17.89;41.95
12949;BME280;6539;49.476;8.484;2023-03-21T08:08:58;100661.94;;;17.76;41.66
12949;BME280;6539;49.476;8.484;2023-03-21T08:11:25;100657.22;;;17.98;41.44
12949;BME280;6539;49.476;8.484;2023-03-21T08:13:52;100658.28;;;18.13;40.65
12949;BME280;6539;49.476;8.484;2023-03-21T08:16:18;100651.44;;;18.49;40.17
12949;BME280;6539;49.476;8.484;2023-03-21T08:18:45;100650.03;;;18.44;40.06
12949;BME280;6539;49.476;8.484;2023-03-21T08:21:11;100648.84;;;18.76;39.18
12949;BME280;6539;49.476;8.484;2023-03-21T08:23:36;100652.69;;;19.00;38.86
12949;BME280;6539;49.476;8.484;2023-03-21T08:26:02;100650.09;;;19.06;39.08
12949;BME280;6539;49.476;8.484;2023-03-21T08:28:28;100646.16;;;18.94;38.63
12949;BME280;6539;49.476;8.484;2023-03-21T08:30:56;100649.94;;;19.09;38.90
12949;BME280;6539;49.476;8.484;2023-03-21T08:33:22;100651.19;;;18.56;39.06
12949;BME280;6539;49.476;8.484;2023-03-21T08:35:52;100648.28;;;18.03;39.72
12949;BME280;6539;49.476;8.484;2023-03-21T08:38:18;100653.31;;;17.62;41.37
12949;BME280;6539;49.476;8.484;2023-03-21T08:40:46;100651.31;;;17.24;41.50
12949;BME280;6539;49.476;8.484;2023-03-21T08:43:14;100655.41;;;17.07;42.93
12949;BME280;6539;49.476;8.484;2023-03-21T08:45:45;100658.03;;;16.73;43.80
12949;BME280;6539;49.476;8.484;2023-03-21T08:48:13;100659.34;;;16.68;44.34
12949;BME280;6539;49.476;8.484;2023-03-21T08:50:39;100657.69;;;16.42;44.26
12949;BME280;6539;49.476;8.484;2023-03-21T08:53:04;100665.31;;;16.38;44.74
12949;BME280;6539;49.476;8.484;2023-03-21T08:55:30;100662.44;;;16.42;44.58
12949;BME280;6539;49.476;8.484;2023-03-21T08:57:58;100670.88;;;16.38;44.98
12949;BME280;6539;49.476;8.484;2023-03-21T09:00:27;100667.94;;;16.29;45.48
12949;BME280;6539;49.476;8.484;2023-03-21T09:02:53;100657.50;;;16.21;45.95
12949;BME280;6539;49.476;8.484;2023-03-21T09:05:21;100654.63;;;16.24;45.77
12949;BME280;6539;49.476;8.484;2023-03-21T09:07:47;100662.25;;;16.20;45.94
12949;BME280;6539;49.476;8.484;2023-03-21T09:10:20;100655.19;;;16.03;46.47
12949;BME280;6539;49.476;8.484;2023-03-21T09:12:46;100649.56;;;16.07;46.43
12949;BME280;6539;49.476;8.484;2023-03-21T09:15:16;100652.59;;;15.96;46.69
12949;BME280;6539;49.476;8.484;2023-03-21T09:17:43;100658.69;;;15.91;46.98
12949;BME280;6539;49.476;8.484;2023-03-21T09:20:13;100653.50;;;15.77;47.76
12949;BME280;6539;49.476;8.484;2023-03-21T09:22:50;100656.88;;;15.68;47.98
12949;BME280;6539;49.476;8.484;2023-03-21T09:25:19;100655.16;;;15.58;47.97
12949;BME280;6539;49.476;8.484;2023-03-21T09:27:51;100658.28;;;15.60;47.75
12949;BME280;6539;49.476;8.484;2023-03-21T09:30:21;100656.81;;;15.72;47.22
12949;BME280;6539;49.476;8.484;2023-03-21T09:32:50;100649.03;;;15.67;47.13
12949;BME280;6539;49.476;8.484;2023-03-21T09:35:19;100654.47;;;15.70;47.05
12949;BME280;6539;49.476;8.484;2023-03-21T09:37:46;100652.72;;;15.76;46.81
12949;BME280;6539;49.476;8.484;2023-03-21T09:43:19;100647.63;;;15.91;46.11
12949;BME280;6539;49.476;8.484;2023-03-21T09:48:53;100654.91;;;16.14;45.77
12949;BME280;6539;49.476;8.484;2023-03-21T09:51:25;100653.09;;;16.07;46.19
12949;BME280;6539;49.476;8.484;2023-03-21T09:53:56;100652.13;;;16.14;46.14
12949;BME280;6539;49.476;8.484;2023-03-21T09:56:25;100651.50;;;16.22;45.80
12949;BME280;6539;49.476;8.484;2023-03-21T09:58:56;100650.38;;;16.20;45.97
12949;BME280;6539;49.476;8.484;2023-03-21T10:01:29;100651.09;;;16.24;45.56
12949;BME280;6539;49.476;8.484;2023-03-21T10:04:09;100658.34;;;16.18;45.40
12949;BME280;6539;49.476;8.484;2023-03-21T10:06:39;100650.94;;;16.15;45.44
12949;BME280;6539;49.476;8.484;2023-03-21T10:09:16;100651.16;;;16.20;44.95
12949;BME280;6539;49.476;8.484;2023-03-21T10:12:02;100658.06;;;16.28;45.30
12949;BME280;6539;49.476;8.484;2023-03-21T10:14:34;100647.63;;;16.20;45.52
12949;BME280;6539;49.476;8.484;2023-03-21T10:17:42;100652.13;;;15.85;45.78
12949;BME280;6539;49.476;8.484;2023-03-21T10:20:18;100647.88;;;15.80;46.65
12949;BME280;6539;49.476;8.484;2023-03-21T10:22:52;100642.78;;;15.79;46.85
12949;BME280;6539;49.476;8.484;2023-03-21T10:25:51;100639.94;;;15.66;46.60
12949;BME280;6539;49.476;8.484;2023-03-21T10:28:34;100632.94;;;15.78;46.24
12949;BME280;6539;49.476;8.484;2023-03-21T10:31:05;100637.34;;;15.59;46.79
12949;BME280;6539;49.476;8.484;2023-03-21T10:33:42;100632.59;;;15.60;46.61
12949;BME280;6539;49.476;8.484;2023-03-21T10:36:15;100633.03;;;15.58;47.17
12949;BME280;6539;49.476;8.484;2023-03-21T10:38:48;100628.88;;;15.66;46.90
12949;BME280;6539;49.476;8.484;2023-03-21T10:41:15;100619.75;;;15.82;46.91
12949;BME280;6539;49.476;8.484;2023-03-21T10:43:42;100619.16;;;15.74;46.66
12949;BME280;6539;49.476;8.484;2023-03-21T10:46:19;100615.69;;;15.70;46.71
12949;BME280;6539;49.476;8.484;2023-03-21T10:48:51;100626.50;;;15.81;46.66
12949;BME280;6539;49.476;8.484;2023-03-21T10:51:32;100624.28;;;15.76;47.02
12949;BME280;6539;49.476;8.484;2023-03-21T10:54:08;100622.97;;;15.64;47.79
12949;BME280;6539;49.476;8.484;2023-03-21T10:59:44;100616.94;;;15.53;48.68
12949;BME280;6539;49.476;8.484;2023-03-21T11:02:23;100623.44;;;15.63;48.78
12949;BME280;6539;49.476;8.484;2023-03-21T11:04:51;100626.88;;;15.67;48.81
12949;BME280;6539;49.476;8.484;2023-03-21T11:07:21;100623.75;;;15.65;48.92
12949;BME280;6539;49.476;8.484;2023-03-21T11:09:56;100616.25;;;15.65;49.06
12949;BME280;6539;49.476;8.484;2023-03-21T11:12:34;100624.78;;;15.71;49.74
12949;BME280;6539;49.476;8.484;2023-03-21T11:16:04;100608.53;;;15.73;50.44
12949;BME280;6539;49.476;8.484;2023-03-21T11:18:31;100619.88;;;15.78;51.03
12949;BME280;6539;49.476;8.484;2023-03-21T11:21:10;100612.25;;;15.82;48.75
12949;BME280;6539;49.476;8.484;2023-03-21T11:23:45;100608.53;;;15.73;49.38
12949;BME280;6539;49.476;8.484;2023-03-21T11:26:27;100599.09;;;15.70;50.02
12949;BME280;6539;49.476;8.484;2023-03-21T11:28:55;100602.38;;;15.81;50.06
12949;BME280;6539;49.476;8.484;2023-03-21T11:31:26;100597.84;;;15.87;50.43
12949;BME280;6539;49.476;8.484;2023-03-21T11:34:13;100603.31;;;15.91;50.02
12949;BME280;6539;49.476;8.484;2023-03-21T11:36:56;100599.66;;;15.94;50.01
12949;BME280;6539;49.476;8.484;2023-03-21T11:39:36;100598.34;;;15.98;49.01
12949;BME280;6539;49.476;8.484;2023-03-21T11:42:23;100591.75;;;15.80;49.23
12949;BME280;6539;49.476;8.484;2023-03-21T11:45:00;100586.94;;;15.96;48.52
12949;BME280;6539;49.476;8.484;2023-03-21T11:47:29;100581.66;;;16.02;48.52
12949;BME280;6539;49.476;8.484;2023-03-21T11:49:56;100578.91;;;16.15;48.42
12949;BME280;6539;49.476;8.484;2023-03-21T11:52:40;100573.41;;;16.27;47.38
12949;BME280;6539;49.476;8.484;2023-03-21T11:55:40;100569.34;;;16.44;46.43
12949;BME280;6539;49.476;8.484;2023-03-21T12:01:16;100566.25;;;16.42;46.70
12949;BME280;6539;49.476;8.484;2023-03-21T12:10:08;100549.41;;;16.49;46.14
12949;BME280;6539;49.476;8.484;2023-03-21T12:16:02;100540.50;;;16.42;46.30
12949;BME280;6539;49.476;8.484;2023-03-21T12:24:50;100527.94;;;16.53;46.32
12949;BME280;6539;49.476;8.484;2023-03-21T12:27:53;100523.72;;;16.61;46.08
12949;BME280;6539;49.476;8.484;2023-03-21T12:36:11;100514.72;;;16.83;45.17
12949;BME280;6539;49.476;8.484;2023-03-21T12:42:40;100495.63;;;16.97;44.57
12949;BME280;6539;49.476;8.484;2023-03-21T12:45:35;100491.19;;;17.00;44.69
12949;BME280;6539;49.476;8.484;2023-03-21T12:48:41;100491.41;;;17.05;44.35
12949;BME280;6539;49.476;8.484;2023-03-21T12:51:19;100485.84;;;17.05;44.42
12949;BME280;6539;49.476;8.484;2023-03-21T12:54:14;100485.06;;;17.05;44.18
12949;BME280;6539;49.476;8.484;2023-03-21T12:59:50;100475.53;;;17.06;44.13
12949;BME280;6539;49.476;8.484;2023-03-21T13:02:33;100471.00;;;16.99;43.97
12949;BME280;6539;49.476;8.484;2023-03-21T13:08:42;100472.84;;;17.15;43.90
12949;BME280;6539;49.476;8.484;2023-03-21T13:10:45;100468.53;;;17.14;44.13
12949;BME280;6539;49.476;8.484;2023-03-21T13:17:05;100476.06;;;17.13;43.14
12949;BME280;6539;49.476;8.484;2023-03-21T13:19:46;100465.25;;;16.81;43.76
12949;BME280;6539;49.476;8.484;2023-03-21T13:25:22;100455.06;;;16.78;43.98
12949;BME280;6539;49.476;8.484;2023-03-21T13:28:00;100456.72;;;16.88;43.63
12949;BME280;6539;49.476;8.484;2023-03-21T13:30:31;100454.28;;;16.77;43.93
12949;BME280;6539;49.476;8.484;2023-03-21T13:35:36;100452.28;;;16.65;43.97
12949;BME280;6539;49.476;8.484;2023-03-21T13:38:19;100451.09;;;16.66;43.95
12949;BME280;6539;49.476;8.484;2023-03-21T13:44:05;100447.41;;;16.44;44.14
12949;BME280;6539;49.476;8.484;2023-03-21T13:49:36;100438.31;;;16.56;44.80
12949;BME280;6539;49.476;8.484;2023-03-21T13:52:26;100434.34;;;16.57;45.29
12949;BME280;6539;49.476;8.484;2023-03-21T13:54:56;100433.13;;;16.58;45.46
12949;BME280;6539;49.476;8.484;2023-03-21T14:00:29;100437.44;;;16.59;45.57
12949;BME280;6539;49.476;8.484;2023-03-21T14:02:59;100427.47;;;16.49;46.03
12949;BME280;6539;49.476;8.484;2023-03-21T14:05:29;100429.78;;;16.38;46.33
12949;BME280;6539;49.476;8.484;2023-03-21T14:08:00;100427.91;;;16.35;46.76
12949;BME280;6539;49.476;8.484;2023-03-21T14:10:42;100432.13;;;16.40;47.56
12949;BME280;6539;49.476;8.484;2023-03-21T14:13:18;100412.72;;;16.40;47.98
12949;BME280;6539;49.476;8.484;2023-03-21T14:15:59;100420.16;;;16.30;48.49
12949;BME280;6539;49.476;8.484;2023-03-21T14:18:29;100406.97;;;16.34;49.10
12949;BME280;6539;49.476;8.484;2023-03-21T14:20:57;100409.63;;;16.38;49.13
12949;BME280;6539;49.476;8.484;2023-03-21T14:23:27;100408.03;;;16.37;49.00
12949;BME280;6539;49.476;8.484;2023-03-21T14:25:55;100404.84;;;16.38;48.72
12949;BME280;6539;49.476;8.484;2023-03-21T14:28:29;100410.16;;;16.33;49.18
12949;BME280;6539;49.476;8.484;2023-03-21T14:31:01;100406.63;;;16.32;49.38
12949;BME280;6539;49.476;8.484;2023-03-21T14:33:45;100403.53;;;16.30;49.13
12949;BME280;6539;49.476;8.484;2023-03-21T14:36:19;100413.94;;;16.26;50.25
12949;BME280;6539;49.476;8.484;2023-03-21T14:41:33;100425.78;;;16.27;50.62
12949;BME280;6539;49.476;8.484;2023-03-21T14:44:14;100425.13;;;16.23;50.29
12949;BME280;6539;49.476;8.484;2023-03-21T14:46:43;100415.50;;;16.27;52.04
12949;BME280;6539;49.476;8.484;2023-03-21T14:49:30;100412.47;;;16.22;51.51
12949;BME280;6539;49.476;8.484;2023-03-21T14:52:01;100418.81;;;16.22;51.61
12949;BME280;6539;49.476;8.484;2023-03-21T14:54:29;100405.84;;;16.19;52.81
12949;BME280;6539;49.476;8.484;2023-03-21T14:57:10;100397.75;;;16.12;53.51
12949;BME280;6539;49.476;8.484;2023-03-21T14:59:39;100387.56;;;16.09;54.09
12949;BME280;6539;49.476;8.484;2023-03-21T15:02:34;100373.28;;;16.11;55.04
12949;BME280;6539;49.476;8.484;2023-03-21T15:07:39;100339.94;;;16.01;55.34
12949;BME280;6539;49.476;8.484;2023-03-21T15:10:15;100338.38;;;15.88;56.07